Time;durP1;ratioP1;P1;durP2;ratioP2;P2;SDS_P1;SDS_P2;PMS_P1;PMS_P2;Temp;Humidity;BMP_temperature;BMP_pressure;BME280_temperature;BME280_humidity;BME280_pressure;Samples;Min_cycle;Max_cycle;Signal;HPM_P1;HPM_P2
2022/05/23 00:01:41;;;;;;;;;;;;;;;19.20;54.46;99106.13;5011709;28;19917;-81
2022/05/23 00:04:07;;;;;;;;;;;;;;;19.17;54.92;99104.50;5012727;28;19917;-81
2022/05/23 00:06:32;;;;;;;;;;;;;;;19.14;54.92;99105.53;5011002;28;20352;-81
2022/05/23 00:08:57;;;;;;;;;;;;;;;19.15;55.11;99106.41;5011340;28;20000;-81
2022/05/23 00:11:23;;;;;;;;;;;;;;;18.92;55.31;99108.63;5012486;28;19923;-81
2022/05/23 00:13:49;;;;;;;;;;;;;;;18.90;55.26;99109.66;4993170;28;20394;-81
2022/05/23 00:16:19;;;;;;;;;;;;;;;18.76;55.27;99097.94;5011892;28;20020;-81
2022/05/23 00:18:45;;;;;;;;;;;;;;;18.96;55.28;99104.81;5011239;28;19918;-82
2022/05/23 00:21:10;;;;;;;;;;;;;;;18.89;55.04;99107.94;5011697;28;19975;-82
2022/05/23 00:23:36;;;;;;;;;;;;;;;18.91;55.11;99104.22;5010688;28;19913;-81
2022/05/23 00:26:01;;;;;;;;;;;;;;;18.89;55.33;99097.25;5011262;28;20314;-81
2022/05/23 00:28:26;;;;;;;;;;;;;;;18.93;55.01;99098.81;5012105;28;19914;-80
2022/05/23 00:30:52;;;;;;;;;;;;;;;18.66;55.44;99103.91;5010793;28;19984;-80
2022/05/23 00:36:01;;;;;;;;;;;;;;;18.51;56.06;99087.81;5011821;28;19943;-81
2022/05/23 00:38:26;;;;;;;;;;;;;;;18.59;55.67;99096.25;5010983;28;19917;-80
2022/05/23 00:40:52;;;;;;;;;;;;;;;18.67;55.43;99094.94;5011638;28;19921;-81
2022/05/23 00:43:20;;;;;;;;;;;;;;;18.61;56.00;99085.47;4992569;28;19921;-81
2022/05/23 00:45:47;;;;;;;;;;;;;;;18.64;55.86;99093.31;5010675;28;19917;-80
2022/05/23 00:48:13;;;;;;;;;;;;;;;18.60;55.40;99092.63;5011631;28;19910;-80
2022/05/23 00:50:40;;;;;;;;;;;;;;;18.68;55.71;99094.84;5009870;28;20568;-81
2022/05/23 00:53:07;;;;;;;;;;;;;;;18.77;54.92;99091.66;5011142;28;19967;-80
2022/05/23 00:55:35;;;;;;;;;;;;;;;18.90;54.41;99101.66;5011900;28;19956;-80
2022/05/23 00:58:06;;;;;;;;;;;;;;;18.97;54.19;99105.69;5011302;28;19968;-80
2022/05/23 01:00:31;;;;;;;;;;;;;;;19.04;54.25;99100.84;5010654;28;20384;-81
2022/05/23 01:03:00;;;;;;;;;;;;;;;18.99;54.34;99093.09;5011692;28;19918;-80
2022/05/23 01:05:26;;;;;;;;;;;;;;;18.90;54.29;99093.63;5012095;28;19913;-80
2022/05/23 01:07:52;;;;;;;;;;;;;;;19.03;53.99;99083.94;4993667;28;19980;-80
2022/05/23 01:10:17;;;;;;;;;;;;;;;19.22;53.80;99088.19;5010381;28;20026;-81
2022/05/23 01:12:43;;;;;;;;;;;;;;;18.94;54.65;99081.81;5011204;28;19933;-80
2022/05/23 01:15:19;;;;;;;;;;;;;;;19.00;54.84;99078.78;5010811;28;20403;-80
2022/05/23 01:17:45;;;;;;;;;;;;;;;18.75;55.04;99087.34;5011172;28;19970;-78
2022/05/23 01:20:11;;;;;;;;;;;;;;;18.76;55.18;99079.22;5010888;28;19917;-79
2022/05/23 01:22:54;;;;;;;;;;;;;;;18.49;55.78;99081.72;5011196;28;19929;-79
2022/05/23 01:25:29;;;;;;;;;;;;;;;18.51;55.97;99076.28;5011522;28;19913;-80
2022/05/23 01:27:54;;;;;;;;;;;;;;;18.49;55.83;99078.16;5011420;28;19967;-79
2022/05/23 01:30:20;;;;;;;;;;;;;;;18.40;56.19;99079.56;5010600;28;19913;-79
2022/05/23 01:32:45;;;;;;;;;;;;;;;18.38;56.40;99085.00;5011154;28;20341;-79
2022/05/23 01:35:11;;;;;;;;;;;;;;;18.35;56.77;99081.63;5011514;28;19936;-79
2022/05/23 01:37:37;;;;;;;;;;;;;;;18.34;56.38;99080.75;5010237;28;19927;-79
2022/05/23 01:40:03;;;;;;;;;;;;;;;18.56;55.82;99090.22;5011065;28;20387;-81
2022/05/23 01:42:29;;;;;;;;;;;;;;;18.60;56.05;99083.75;4992876;28;20022;-79
2022/05/23 01:44:54;;;;;;;;;;;;;;;18.37;56.52;99085.09;5010847;28;19921;-79
2022/05/23 01:47:20;;;;;;;;;;;;;;;18.43;56.17;99082.91;5010052;28;19925;-80
2022/05/23 01:49:46;;;;;;;;;;;;;;;18.37;56.69;99083.25;5011092;28;19913;-80
2022/05/23 01:52:12;;;;;;;;;;;;;;;18.45;56.17;99087.31;5010760;28;19924;-79
2022/05/23 01:54:37;;;;;;;;;;;;;;;18.46;56.50;99094.34;5011227;28;20028;-80
2022/05/23 01:57:03;;;;;;;;;;;;;;;18.58;55.83;99093.66;5008785;28;19922;-80
2022/05/23 02:02:13;;;;;;;;;;;;;;;18.56;56.03;99090.22;5010391;28;20402;-80
2022/05/23 02:04:38;;;;;;;;;;;;;;;18.62;55.95;99089.88;5009939;28;19913;-80
2022/05/23 02:07:05;;;;;;;;;;;;;;;18.47;56.54;99086.25;5010679;28;20284;-80
2022/05/23 02:09:30;;;;;;;;;;;;;;;18.39;56.72;99085.84;5011468;28;19917;-81
2022/05/23 02:11:56;;;;;;;;;;;;;;;18.55;56.52;99085.81;5011078;28;19921;-80
2022/05/23 02:14:21;;;;;;;;;;;;;;;18.40;56.83;99083.09;5013479;28;20379;-80
2022/05/23 02:16:46;;;;;;;;;;;;;;;18.44;56.79;99086.44;5013940;28;19928;-79
2022/05/23 02:19:12;;;;;;;;;;;;;;;18.42;56.70;99083.00;5013191;28;19920;-80
2022/05/23 02:21:37;;;;;;;;;;;;;;;18.39;56.55;99083.19;5014253;28;19975;-81
2022/05/23 02:24:06;;;;;;;;;;;;;;;18.27;56.94;99081.19;5014291;28;19917;-80
2022/05/23 02:26:32;;;;;;;;;;;;;;;18.34;56.91;99079.91;5013340;28;19917;-80
2022/05/23 02:28:58;;;;;;;;;;;;;;;18.29;56.69;99074.84;5013880;28;19917;-80
2022/05/23 02:31:23;;;;;;;;;;;;;;;18.15;56.80;99072.94;5012941;28;20422;-79
2022/05/23 02:33:48;;;;;;;;;;;;;;;18.22;56.90;99079.63;5013890;28;19917;-81
2022/05/23 02:36:14;;;;;;;;;;;;;;;18.43;56.07;99080.25;5013387;28;20410;-80
2022/05/23 02:38:39;;;;;;;;;;;;;;;18.49;55.81;99075.50;5013554;28;19917;-81
2022/05/23 02:41:05;;;;;;;;;;;;;;;18.47;55.99;99082.75;5013551;28;20302;-80
2022/05/23 02:43:30;;;;;;;;;;;;;;;18.32;56.05;99085.34;5012901;28;19968;-80
2022/05/23 02:45:56;;;;;;;;;;;;;;;18.46;55.94;99078.34;5013367;28;19929;-79
2022/05/23 02:48:21;;;;;;;;;;;;;;;18.47;55.90;99088.94;5011955;28;19913;-80
2022/05/23 02:50:47;;;;;;;;;;;;;;;18.45;56.20;99077.47;5012597;28;20444;-80
2022/05/23 02:53:12;;;;;;;;;;;;;;;18.27;56.82;99067.84;5013433;28;19917;-80
2022/05/23 02:55:38;;;;;;;;;;;;;;;18.27;56.60;99070.53;5013301;28;19956;-82
2022/05/23 02:58:03;;;;;;;;;;;;;;;18.42;56.33;99078.50;5012933;28;19917;-82
2022/05/23 03:00:30;;;;;;;;;;;;;;;18.34;56.50;99077.25;5012541;28;19933;-83
2022/05/23 03:03:04;;;;;;;;;;;;;;;18.32;56.73;99073.78;5012753;28;19917;-81
2022/05/23 03:05:36;;;;;;;;;;;;;;;18.23;56.89;99076.03;5011703;28;20441;-84
2022/05/23 03:08:01;;;;;;;;;;;;;;;18.25;56.68;99076.78;5001852;28;19918;-83
2022/05/23 03:10:27;;;;;;;;;;;;;;;18.29;56.60;99076.63;4995599;28;19932;-83
2022/05/23 03:12:52;;;;;;;;;;;;;;;18.20;56.65;99083.38;4992056;28;19918;-82
2022/05/23 03:15:18;;;;;;;;;;;;;;;18.27;56.30;99081.19;5004396;28;20445;-83
2022/05/23 03:17:43;;;;;;;;;;;;;;;18.32;56.36;99082.66;5013084;28;20028;-82
2022/05/23 03:20:09;;;;;;;;;;;;;;;18.30;56.10;99081.88;5011797;28;19921;-82
2022/05/23 03:28:02;;;;;;;;;;;;;;;18.68;55.07;99084.16;5012402;28;20307;-82
2022/05/23 03:30:27;;;;;;;;;;;;;;;18.61;55.34;99091.69;5013672;28;19917;-83
2022/05/23 03:32:53;;;;;;;;;;;;;;;18.66;55.75;99079.84;5012960;28;20012;-83
2022/05/23 03:35:18;;;;;;;;;;;;;;;18.68;54.97;99076.16;5012258;28;20421;-83
2022/05/23 03:37:43;;;;;;;;;;;;;;;18.65;55.31;99084.34;5012281;28;20358;-84
2022/05/23 03:40:09;;;;;;;;;;;;;;;18.66;54.90;99080.75;5012588;28;19918;-85
2022/05/23 03:42:35;;;;;;;;;;;;;;;18.95;54.75;99086.19;5012383;28;19913;-81
2022/05/23 03:45:00;;;;;;;;;;;;;;;18.80;55.31;99087.94;5012347;28;19925;-83
2022/05/23 03:47:25;;;;;;;;;;;;;;;18.90;54.63;99081.13;5012421;28;20060;-82
2022/05/23 03:49:51;;;;;;;;;;;;;;;18.99;54.65;99082.41;4994529;28;19951;-82
2022/05/23 03:52:16;;;;;;;;;;;;;;;19.08;54.49;99083.69;5011987;28;19997;-82
2022/05/23 03:54:41;;;;;;;;;;;;;;;19.20;54.27;99085.63;4994808;28;19921;-85
2022/05/23 03:57:07;;;;;;;;;;;;;;;19.11;54.15;99081.66;5012112;28;19924;-81
2022/05/23 03:59:32;;;;;;;;;;;;;;;19.28;54.57;99077.13;5012384;28;20450;-82
2022/05/23 04:01:58;;;;;;;;;;;;;;;19.30;53.40;99081.41;5012545;28;20398;-81
2022/05/23 04:04:27;;;;;;;;;;;;;;;19.27;53.89;99084.28;5011782;28;19956;-81
2022/05/23 04:06:52;;;;;;;;;;;;;;;19.27;54.19;99094.13;5011131;28;20384;-82
2022/05/23 04:09:18;;;;;;;;;;;;;;;19.37;53.15;99087.25;4996934;28;19985;-82
2022/05/23 04:11:44;;;;;;;;;;;;;;;19.55;52.99;99093.28;4997439;28;19963;-82
2022/05/23 04:14:09;;;;;;;;;;;;;;;19.60;52.68;99093.00;5012325;28;20387;-81
2022/05/23 04:16:35;;;;;;;;;;;;;;;19.70;52.45;99095.97;5012000;28;20355;-81
2022/05/23 04:19:02;;;;;;;;;;;;;;;19.88;52.31;99097.53;5012399;28;20383;-81
2022/05/23 04:21:27;;;;;;;;;;;;;;;20.06;51.46;99092.81;5010661;28;19917;-82
2022/05/23 04:23:53;;;;;;;;;;;;;;;20.18;51.97;99100.06;4994405;28;19975;-83
2022/05/23 04:26:18;;;;;;;;;;;;;;;19.97;52.24;99101.44;5011313;28;19917;-83
2022/05/23 04:28:43;;;;;;;;;;;;;;;19.91;52.11;99101.81;4994275;28;20288;-83
2022/05/23 04:31:09;;;;;;;;;;;;;;;19.94;52.51;99096.28;5011398;28;19918;-82
2022/05/23 04:36:19;;;;;;;;;;;;;;;19.97;51.27;99109.47;5009802;28;19963;-83
2022/05/23 04:38:44;;;;;;;;;;;;;;;20.12;51.79;99094.25;5006853;28;20387;-82
2022/05/23 04:41:09;;;;;;;;;;;;;;;20.08;52.59;99098.06;5011811;28;19918;-82
2022/05/23 04:43:35;;;;;;;;;;;;;;;20.21;51.62;99093.66;5012744;28;19913;-82
2022/05/23 04:46:00;;;;;;;;;;;;;;;20.06;52.42;99092.81;5021084;28;19921;-84
2022/05/23 04:51:09;;;;;;;;;;;;;;;20.46;51.15;99092.06;5011379;28;19952;-83
2022/05/23 04:53:35;;;;;;;;;;;;;;;20.63;50.66;99093.63;5010789;28;20406;-83
2022/05/23 04:56:01;;;;;;;;;;;;;;;20.70;50.60;99085.13;5011931;28;19918;-84
2022/05/23 04:58:26;;;;;;;;;;;;;;;20.83;50.85;99084.31;5010983;28;19921;-82
2022/05/23 05:00:53;;;;;;;;;;;;;;;20.74;50.85;99085.78;5009716;28;19922;-81
2022/05/23 05:03:19;;;;;;;;;;;;;;;20.91;50.28;99080.16;5011341;28;19920;-82
2022/05/23 05:05:45;;;;;;;;;;;;;;;20.97;50.56;99080.69;5011213;28;19921;-82
2022/05/23 05:08:10;;;;;;;;;;;;;;;20.97;50.58;99078.88;5011098;28;19918;-82
2022/05/23 05:10:35;;;;;;;;;;;;;;;21.20;50.44;99074.59;5010227;28;19924;-82
2022/05/23 05:13:00;;;;;;;;;;;;;;;21.25;49.64;99076.97;5011419;28;19917;-83
2022/05/23 05:15:27;;;;;;;;;;;;;;;21.32;49.45;99067.56;5010336;28;19921;-83
2022/05/23 05:17:52;;;;;;;;;;;;;;;21.17;49.81;99082.03;5009764;28;20338;-81
2022/05/23 05:20:18;;;;;;;;;;;;;;;21.27;49.41;99080.41;5010358;28;19917;-81
2022/05/23 05:22:44;;;;;;;;;;;;;;;21.23;49.13;99079.75;5010649;28;19914;-81
2022/05/23 05:25:09;;;;;;;;;;;;;;;21.36;49.16;99078.91;5011284;28;19913;-80
2022/05/23 05:27:35;;;;;;;;;;;;;;;21.76;49.87;99089.56;5010780;28;19913;-80
2022/05/23 05:30:00;;;;;;;;;;;;;;;22.05;48.38;99092.00;5011387;28;19922;-80
2022/05/23 05:32:44;;;;;;;;;;;;;;;22.50;47.56;99090.47;5010540;28;19952;-80
2022/05/23 05:35:17;;;;;;;;;;;;;;;22.62;45.05;99086.03;5010849;28;19944;-81
2022/05/23 05:37:48;;;;;;;;;;;;;;;22.78;45.33;99074.13;4994061;28;19913;-81
2022/05/23 05:40:16;;;;;;;;;;;;;;;23.06;43.75;99081.81;5009573;28;19928;-81
2022/05/23 05:42:44;;;;;;;;;;;;;;;22.95;44.75;99079.06;5010057;28;19917;-82
2022/05/23 05:45:22;;;;;;;;;;;;;;;23.05;43.84;99081.94;4991885;28;19972;-82
2022/05/23 05:47:50;;;;;;;;;;;;;;;23.42;43.42;99076.44;4993113;28;19909;-82
2022/05/23 05:50:20;;;;;;;;;;;;;;;23.65;42.34;99084.53;4995734;28;19913;-81
2022/05/23 05:52:46;;;;;;;;;;;;;;;23.76;42.48;99084.53;5009043;28;19918;-82
2022/05/23 05:55:12;;;;;;;;;;;;;;;23.73;40.70;99082.94;5014777;28;19917;-82
2022/05/23 05:57:38;;;;;;;;;;;;;;;23.73;41.67;99077.56;5014548;28;19936;-82
2022/05/23 06:00:05;;;;;;;;;;;;;;;24.09;40.19;99081.00;5014917;28;19917;-82
2022/05/23 06:02:30;;;;;;;;;;;;;;;23.93;40.77;99076.00;5014112;28;20018;-82
2022/05/23 06:04:55;;;;;;;;;;;;;;;24.04;39.07;99061.66;4996500;28;19957;-82
2022/05/23 06:12:50;;;;;;;;;;;;;;;24.51;40.29;99063.28;5014500;28;19924;-82
2022/05/23 06:15:16;;;;;;;;;;;;;;;25.02;40.65;99068.00;5014556;28;20012;-82
2022/05/23 06:17:45;;;;;;;;;;;;;;;25.18;39.09;99065.72;5014306;28;20344;-80
2022/05/23 06:20:11;;;;;;;;;;;;;;;24.96;38.04;99058.59;5014386;28;20004;-81
2022/05/23 06:22:36;;;;;;;;;;;;;;;25.08;39.48;99064.78;5014057;28;19921;-81
2022/05/23 06:25:02;;;;;;;;;;;;;;;25.32;39.10;99059.16;4996479;28;19963;-81
2022/05/23 06:27:28;;;;;;;;;;;;;;;25.31;38.39;99053.91;5014336;28;19909;-81
2022/05/23 06:29:53;;;;;;;;;;;;;;;24.92;38.93;99067.09;5014309;28;19920;-80
2022/05/23 06:32:18;;;;;;;;;;;;;;;25.48;39.64;99071.31;5014745;28;19914;-83
2022/05/23 06:34:43;;;;;;;;;;;;;;;25.28;37.87;99063.06;5014447;28;19909;-81
2022/05/23 06:37:09;;;;;;;;;;;;;;;25.78;39.76;99059.69;5013863;28;19999;-82
2022/05/23 06:39:34;;;;;;;;;;;;;;;25.84;37.48;99061.84;5014407;28;19920;-81
2022/05/23 06:41:59;;;;;;;;;;;;;;;25.86;36.96;99051.75;5014220;28;19916;-81
2022/05/23 06:44:25;;;;;;;;;;;;;;;25.76;38.07;99048.16;5013983;28;19963;-82
2022/05/23 06:46:50;;;;;;;;;;;;;;;25.92;38.16;99051.22;5014399;28;20302;-82
2022/05/23 06:49:15;;;;;;;;;;;;;;;26.15;37.28;99047.44;5013893;28;20375;-82
2022/05/23 06:51:41;;;;;;;;;;;;;;;26.41;35.30;99048.63;5013912;28;19944;-83
2022/05/23 06:54:06;;;;;;;;;;;;;;;26.09;35.02;99040.78;5014058;28;19917;-82
2022/05/23 06:56:32;;;;;;;;;;;;;;;26.52;34.66;99047.66;5014098;28;20368;-83
2022/05/23 06:58:58;;;;;;;;;;;;;;;26.70;35.46;99047.84;5013107;28;20337;-82
2022/05/23 07:01:23;;;;;;;;;;;;;;;26.55;33.77;99050.06;5013457;28;19943;-83
2022/05/23 07:03:48;;;;;;;;;;;;;;;26.68;33.64;99052.56;5013638;28;20302;-83
2022/05/23 07:14:26;;;;;;;;;;;;;;;26.87;32.47;99040.88;5013196;28;19920;-82
2022/05/23 07:16:52;;;;;;;;;;;;;;;26.38;33.11;99042.66;5013659;28;19933;-83
2022/05/23 07:19:18;;;;;;;;;;;;;;;26.26;31.54;99033.84;4995736;28;19913;-82
2022/05/23 07:21:43;;;;;;;;;;;;;;;26.59;32.18;99043.41;5013291;28;19917;-82
2022/05/23 07:24:08;;;;;;;;;;;;;;;26.76;29.82;99035.63;5013283;28;19914;-81
2022/05/23 07:26:35;;;;;;;;;;;;;;;26.85;30.90;99033.88;5012271;28;19917;-81
2022/05/23 07:29:00;;;;;;;;;;;;;;;27.18;31.10;99040.69;4995436;28;19935;-83
2022/05/23 07:31:26;;;;;;;;;;;;;;;27.34;31.46;99040.09;5012740;28;19913;-81
2022/05/23 07:33:51;;;;;;;;;;;;;;;27.90;32.62;99035.66;5013115;28;19918;-80
2022/05/23 07:36:18;;;;;;;;;;;;;;;27.63;30.02;99037.31;5013282;28;19913;-82
2022/05/23 07:38:44;;;;;;;;;;;;;;;27.69;30.43;99046.72;5012021;28;19917;-82
2022/05/23 07:41:10;;;;;;;;;;;;;;;27.63;30.50;99042.72;5013142;28;19913;-82
2022/05/23 07:43:37;;;;;;;;;;;;;;;27.62;29.64;99054.59;5011675;28;20354;-83
2022/05/23 07:46:09;;;;;;;;;;;;;;;27.81;28.30;99050.94;5012040;28;19972;-81
2022/05/23 07:48:34;;;;;;;;;;;;;;;27.80;30.21;99043.81;4993439;28;19910;-82
2022/05/23 07:51:00;;;;;;;;;;;;;;;27.78;27.57;99043.09;4992518;28;20561;-82
2022/05/23 08:01:56;;;;;;;;;;;;;;;27.86;28.69;99045.06;4971022;28;20004;-82
2022/05/23 08:04:22;;;;;;;;;;;;;;;27.94;29.07;99042.44;4979219;28;20005;-81
2022/05/23 08:06:48;;;;;;;;;;;;;;;27.75;27.81;99043.41;4997006;28;19924;-82
2022/05/23 08:09:13;;;;;;;;;;;;;;;27.38;28.33;99038.81;5012577;28;19975;-82
2022/05/23 08:11:40;;;;;;;;;;;;;;;27.63;28.68;99031.03;5011702;28;20012;-82
2022/05/23 08:14:06;;;;;;;;;;;;;;;27.93;28.75;99035.34;4994467;28;20307;-82
2022/05/23 08:16:32;;;;;;;;;;;;;;;27.88;27.92;99029.50;5012450;28;19913;-82
2022/05/23 08:18:58;;;;;;;;;;;;;;;27.50;27.71;99023.25;4994281;28;19913;-83
2022/05/23 08:21:24;;;;;;;;;;;;;;;28.03;28.65;99024.47;5012289;28;19973;-83
2022/05/23 08:23:49;;;;;;;;;;;;;;;27.30;27.28;99030.56;4994475;28;20408;-81
2022/05/23 08:26:15;;;;;;;;;;;;;;;27.32;27.30;99042.97;5012201;28;19917;-83
2022/05/23 08:28:41;;;;;;;;;;;;;;;27.55;28.26;99033.66;5012397;28;20382;-83
2022/05/23 08:31:06;;;;;;;;;;;;;;;27.47;28.46;99027.13;5012163;28;20318;-82
2022/05/23 08:33:32;;;;;;;;;;;;;;;28.17;28.30;99023.94;5012049;28;20291;-82
2022/05/23 08:35:57;;;;;;;;;;;;;;;28.21;27.85;99022.66;5011118;28;19919;-81
2022/05/23 08:38:22;;;;;;;;;;;;;;;28.71;29.05;99015.03;5011835;28;19924;-82
2022/05/23 08:40:53;;;;;;;;;;;;;;;28.60;31.76;99023.44;5012006;28;19913;-81
2022/05/23 08:43:39;;;;;;;;;;;;;;;29.08;28.83;99013.97;5012076;28;19951;-81
2022/05/23 08:46:05;;;;;;;;;;;;;;;28.70;28.36;99005.19;5001062;28;19948;-81
2022/05/23 08:48:38;;;;;;;;;;;;;;;28.00;28.01;99008.50;5011925;28;19957;-82
2022/05/23 08:51:18;;;;;;;;;;;;;;;28.18;27.76;99008.56;5011940;28;19914;-82
2022/05/23 08:54:21;;;;;;;;;;;;;;;28.52;27.22;99002.47;5011756;28;19913;-83
2022/05/23 08:56:54;;;;;;;;;;;;;;;28.78;28.28;99004.41;4951134;29;20487;-82
2022/05/23 08:59:52;;;;;;;;;;;;;;;28.27;27.72;98996.78;4951410;29;19992;-82
2022/05/23 09:02:29;;;;;;;;;;;;;;;27.63;29.38;99002.09;4949744;28;19913;-83
2022/05/23 09:04:58;;;;;;;;;;;;;;;28.15;27.28;98993.44;5011934;28;19917;-83
2022/05/23 09:07:31;;;;;;;;;;;;;;;28.52;26.35;98983.47;5011347;28;19914;-84
2022/05/23 09:09:58;;;;;;;;;;;;;;;28.66;25.21;98984.81;5011916;28;19966;-81
2022/05/23 09:12:24;;;;;;;;;;;;;;;28.73;26.30;98975.91;5011319;28;19921;-82
2022/05/23 09:14:49;;;;;;;;;;;;;;;28.53;27.79;98975.19;5011566;28;19917;-82
2022/05/23 09:17:19;;;;;;;;;;;;;;;28.59;25.92;98968.28;4993144;28;20350;-80
2022/05/23 09:19:54;;;;;;;;;;;;;;;28.81;26.56;98960.66;5010850;28;19956;-83
2022/05/23 09:22:38;;;;;;;;;;;;;;;28.70;28.12;98970.78;5012958;28;19919;-83
2022/05/23 09:25:04;;;;;;;;;;;;;;;28.58;28.41;98970.16;5015848;28;19920;-82
2022/05/23 09:27:35;;;;;;;;;;;;;;;29.03;30.26;98965.59;5014953;28;19917;-83
2022/05/23 09:30:02;;;;;;;;;;;;;;;28.87;29.95;98966.34;5015143;28;19913;-82
2022/05/23 09:32:32;;;;;;;;;;;;;;;28.28;29.84;98971.38;5015024;28;20016;-83
2022/05/23 09:34:59;;;;;;;;;;;;;;;28.62;30.34;98967.13;5014449;28;19918;-82
2022/05/23 09:37:31;;;;;;;;;;;;;;;28.93;29.07;98960.28;4997245;28;20318;-83
2022/05/23 09:39:57;;;;;;;;;;;;;;;29.45;29.44;98959.41;5015165;28;19913;-83
2022/05/23 09:48:10;;;;;;;;;;;;;;;28.52;28.46;98954.47;4995036;28;19971;-81
2022/05/23 09:50:37;;;;;;;;;;;;;;;28.56;29.71;98958.59;4995549;28;19921;-82
2022/05/23 09:53:03;;;;;;;;;;;;;;;28.98;29.24;98962.50;5012679;28;20023;-83
2022/05/23 09:55:33;;;;;;;;;;;;;;;28.85;29.21;98951.22;5015376;28;19914;-83
2022/05/23 09:58:00;;;;;;;;;;;;;;;28.62;28.49;98954.41;5014782;28;20323;-84
2022/05/23 10:00:28;;;;;;;;;;;;;;;28.34;28.58;98945.50;5014865;28;19920;-82
2022/05/23 10:03:02;;;;;;;;;;;;;;;28.62;29.93;98940.84;5014368;28;20335;-82
2022/05/23 10:05:30;;;;;;;;;;;;;;;29.11;31.41;98940.38;5014620;28;19959;-83
2022/05/23 10:08:22;;;;;;;;;;;;;;;29.80;30.57;98940.41;5014972;28;19914;-82
2022/05/23 10:10:55;;;;;;;;;;;;;;;29.74;25.98;98938.31;4983828;28;19923;-83
2022/05/23 10:13:20;;;;;;;;;;;;;;;29.56;24.74;98936.53;5014997;28;19924;-82
2022/05/23 10:16:06;;;;;;;;;;;;;;;29.88;26.02;98943.16;5014562;28;20104;-83
2022/05/23 10:18:33;;;;;;;;;;;;;;;29.51;25.76;98925.31;5000795;28;19920;-83
2022/05/23 10:20:59;;;;;;;;;;;;;;;29.69;25.88;98929.78;5014425;28;19914;-83
2022/05/23 10:23:33;;;;;;;;;;;;;;;29.53;25.17;98928.72;5014544;28;19936;-84
2022/05/23 10:26:16;;;;;;;;;;;;;;;29.32;26.30;98915.56;5014560;28;19913;-84
2022/05/23 10:29:00;;;;;;;;;;;;;;;28.96;26.08;98918.38;5014430;28;19918;-84
2022/05/23 10:31:29;;;;;;;;;;;;;;;28.85;26.22;98929.50;5014311;28;19913;-84
2022/05/23 10:34:13;;;;;;;;;;;;;;;29.08;25.43;98927.09;5013343;28;19923;-83
2022/05/23 10:36:40;;;;;;;;;;;;;;;28.98;25.47;98919.09;5013775;28;19913;-83
2022/05/23 10:42:15;;;;;;;;;;;;;;;28.99;26.18;98925.34;5012696;28;19948;-84
2022/05/23 10:44:47;;;;;;;;;;;;;;;28.83;26.04;98907.13;5014078;28;19913;-84
2022/05/23 10:47:13;;;;;;;;;;;;;;;29.20;27.54;98914.16;5013921;28;20400;-83
2022/05/23 10:49:53;;;;;;;;;;;;;;;28.91;25.51;98913.41;4996256;28;19987;-84
2022/05/23 10:52:28;;;;;;;;;;;;;;;28.80;25.50;98910.16;5014059;28;19921;-82
2022/05/23 10:55:05;;;;;;;;;;;;;;;28.90;25.98;98910.88;5014335;28;19913;-84
2022/05/23 10:57:45;;;;;;;;;;;;;;;28.71;25.89;98907.34;5012993;28;19924;-84
2022/05/23 11:00:10;;;;;;;;;;;;;;;29.18;27.04;98908.84;5014041;28;19943;-83
2022/05/23 11:02:42;;;;;;;;;;;;;;;29.48;26.44;98903.06;5013181;28;19971;-84
2022/05/23 11:05:26;;;;;;;;;;;;;;;29.68;26.92;98909.94;5012133;28;20008;-84
2022/05/23 11:08:07;;;;;;;;;;;;;;;29.06;25.73;98900.13;4995043;28;20062;-84
2022/05/23 11:10:39;;;;;;;;;;;;;;;29.34;26.55;98899.94;5012433;28;20387;-83
2022/05/23 11:13:23;;;;;;;;;;;;;;;29.66;26.09;98892.94;5012310;28;19921;-84
2022/05/23 11:16:07;;;;;;;;;;;;;;;29.60;25.63;98893.63;5013638;28;20013;-83
2022/05/23 11:18:51;;;;;;;;;;;;;;;29.71;26.45;98889.75;5013409;28;19940;-82
2022/05/23 11:21:21;;;;;;;;;;;;;;;30.19;25.95;98885.44;5012954;28;19921;-83
2022/05/23 11:23:51;;;;;;;;;;;;;;;30.22;25.76;98879.66;5013315;28;20407;-83
2022/05/23 11:26:27;;;;;;;;;;;;;;;30.24;27.62;98880.31;5013062;28;20372;-84
2022/05/23 11:34:48;;;;;;;;;;;;;;;29.75;24.53;98872.06;5012589;28;19972;-83
2022/05/23 11:39:51;;;;;;;;;;;;;;;29.69;27.84;98876.31;5013058;28;19913;-83
2022/05/23 11:42:36;;;;;;;;;;;;;;;29.50;25.88;98876.59;5012511;28;19917;-84
2022/05/23 11:47:52;;;;;;;;;;;;;;;28.94;26.74;98863.41;5012764;28;19924;-82
2022/05/23 11:50:18;;;;;;;;;;;;;;;29.13;26.35;98866.91;5011530;28;20351;-82
2022/05/23 11:52:49;;;;;;;;;;;;;;;29.36;26.55;98859.88;4995174;28;20007;-82
2022/05/23 11:55:50;;;;;;;;;;;;;;;29.74;26.15;98859.50;5012816;28;20287;-82
2022/05/23 11:58:42;;;;;;;;;;;;;;;29.55;25.67;98861.50;4913215;29;19930;-83
2022/05/23 12:01:07;;;;;;;;;;;;;;;29.52;25.90;98867.28;4981923;28;20388;-84
2022/05/23 12:03:48;;;;;;;;;;;;;;;29.25;26.31;98862.91;4992785;28;19946;-83
2022/05/23 12:06:17;;;;;;;;;;;;;;;29.49;26.89;98855.84;4992991;28;19914;-84
2022/05/23 12:08:59;;;;;;;;;;;;;;;29.75;24.83;98847.59;4992964;28;19917;-83
2022/05/23 12:11:26;;;;;;;;;;;;;;;30.10;25.39;98845.66;4992935;28;19913;-83
2022/05/23 12:13:57;;;;;;;;;;;;;;;30.22;25.88;98847.03;4993077;28;19922;-83
2022/05/23 12:16:26;;;;;;;;;;;;;;;30.49;24.90;98842.25;4992753;28;19921;-83
2022/05/23 12:19:11;;;;;;;;;;;;;;;30.41;25.14;98843.13;4992664;28;19920;-83
2022/05/23 12:21:39;;;;;;;;;;;;;;;30.22;24.98;98841.56;4975177;28;20032;-83
2022/05/23 12:24:10;;;;;;;;;;;;;;;30.64;24.83;98836.97;4992829;28;19920;-83
2022/05/23 12:26:35;;;;;;;;;;;;;;;30.19;24.91;98844.63;4992832;28;19972;-79
2022/05/23 12:29:19;;;;;;;;;;;;;;;30.21;25.20;98850.75;4993039;28;19913;-82
2022/05/23 12:32:17;;;;;;;;;;;;;;;30.03;24.74;98841.91;4992369;28;19976;-83
2022/05/23 12:34:49;;;;;;;;;;;;;;;29.99;25.79;98830.53;4949442;28;19914;-83
2022/05/23 12:37:33;;;;;;;;;;;;;;;30.05;24.82;98842.59;4992933;28;19965;-83
2022/05/23 12:40:04;;;;;;;;;;;;;;;29.80;24.18;98837.97;4992230;28;19913;-81
2022/05/23 12:42:36;;;;;;;;;;;;;;;29.49;23.98;98848.59;4992373;28;20312;-82
2022/05/23 12:45:05;;;;;;;;;;;;;;;29.64;24.66;98840.63;4992461;28;19913;-82
2022/05/23 12:47:48;;;;;;;;;;;;;;;29.90;24.06;98850.56;4992242;28;19913;-81
2022/05/23 12:50:13;;;;;;;;;;;;;;;29.42;24.45;98844.81;4992081;28;20310;-83
2022/05/23 12:52:57;;;;;;;;;;;;;;;29.36;24.95;98843.59;4992707;28;19914;-83
2022/05/23 12:55:28;;;;;;;;;;;;;;;29.47;25.12;98839.72;4974784;28;20384;-83
2022/05/23 12:58:13;;;;;;;;;;;;;;;29.63;24.53;98850.66;4986526;28;20318;-82
2022/05/23 13:00:42;;;;;;;;;;;;;;;29.68;24.31;98843.88;5011220;28;19918;-84
2022/05/23 13:03:10;;;;;;;;;;;;;;;30.12;24.98;98838.16;5011417;28;19920;-82
2022/05/23 13:05:38;;;;;;;;;;;;;;;29.87;23.96;98840.03;5011451;28;19928;-84
2022/05/23 13:08:11;;;;;;;;;;;;;;;29.38;24.70;98833.44;5011498;28;19913;-83
2022/05/23 13:10:39;;;;;;;;;;;;;;;29.28;25.01;98838.16;5011167;28;19940;-83
2022/05/23 13:13:26;;;;;;;;;;;;;;;29.84;24.29;98829.50;5011948;28;19925;-82
2022/05/23 13:15:51;;;;;;;;;;;;;;;30.39;23.87;98825.25;5010902;28;19921;-83
2022/05/23 13:23:46;;;;;;;;;;;;;;;30.08;24.77;98828.69;5011070;28;19924;-82
2022/05/23 13:26:12;;;;;;;;;;;;;;;30.27;23.69;98822.03;5010963;28;20387;-83
2022/05/23 13:28:42;;;;;;;;;;;;;;;30.22;23.73;98836.13;5011432;28;19910;-83
2022/05/23 13:31:26;;;;;;;;;;;;;;;29.99;23.46;98825.94;5010860;28;19921;-82
2022/05/23 13:33:51;;;;;;;;;;;;;;;30.25;23.18;98821.38;5011188;28;19918;-83
2022/05/23 13:36:16;;;;;;;;;;;;;;;30.30;23.19;98829.84;5011243;28;20386;-83
2022/05/23 13:38:56;;;;;;;;;;;;;;;30.09;23.44;98824.91;4993846;28;19914;-83
2022/05/23 13:41:26;;;;;;;;;;;;;;;30.29;22.99;98829.00;4999324;28;19914;-83
2022/05/23 13:43:51;;;;;;;;;;;;;;;30.29;23.50;98822.69;5018163;28;20011;-83
2022/05/23 13:46:37;;;;;;;;;;;;;;;30.68;23.55;98827.47;5012761;28;20052;-83
2022/05/23 13:49:08;;;;;;;;;;;;;;;30.46;22.48;98832.59;5013058;28;20071;-83
2022/05/23 13:51:39;;;;;;;;;;;;;;;30.21;22.62;98825.44;5011634;28;19914;-84
2022/05/23 13:54:18;;;;;;;;;;;;;;;29.83;23.29;98825.94;5011231;28;19917;-82
2022/05/23 13:56:47;;;;;;;;;;;;;;;29.68;22.71;98822.97;5011304;28;20379;-82
2022/05/23 13:59:19;;;;;;;;;;;;;;;29.66;22.16;98827.75;5010881;28;19917;-83
2022/05/23 14:01:48;;;;;;;;;;;;;;;30.22;22.48;98819.81;5011297;28;19913;-84